Time;durP1;ratioP1;P1;durP2;ratioP2;P2;SDS_P1;SDS_P2;PMS_P1;PMS_P2;Temp;Humidity;BMP_temperature;BMP_pressure;BME280_temperature;BME280_humidity;BME280_pressure;Samples;Min_cycle;Max_cycle;Signal;HPM_P1;HPM_P2
2021/05/31 00:02:21;;;;;;;3.65;1.92;;;;;;;;;;5035600;28;20029;-81
2021/05/31 00:04:48;;;;;;;4.75;2.35;;;;;;;;;;5033983;28;20500;-77
2021/05/31 00:07:17;;;;;;;4.38;2.15;;;;;;;;;;5035611;28;20033;-80
2021/05/31 00:09:43;;;;;;;4.55;2.38;;;;;;;;;;5035615;28;20017;-78
2021/05/31 00:12:11;;;;;;;3.78;1.92;;;;;;;;;;5033767;28;20120;-78
2021/05/31 00:14:37;;;;;;;4.45;2.00;;;;;;;;;;5033788;28;20029;-78
2021/05/31 00:17:04;;;;;;;4.05;2.08;;;;;;;;;;5034840;28;20104;-78
2021/05/31 00:19:30;;;;;;;3.53;2.00;;;;;;;;;;5033779;28;20436;-81
2021/05/31 00:21:57;;;;;;;3.45;2.22;;;;;;;;;;5033841;28;20021;-78
2021/05/31 00:24:23;;;;;;;4.57;2.35;;;;;;;;;;5034677;28;20486;-78
2021/05/31 00:26:50;;;;;;;5.20;2.33;;;;;;;;;;5034658;28;20033;-79
2021/05/31 00:29:17;;;;;;;4.88;2.10;;;;;;;;;;5034589;28;20052;-78
2021/05/31 00:31:44;;;;;;;5.05;2.20;;;;;;;;;;5035078;28;20033;-80
2021/05/31 00:34:10;;;;;;;5.53;2.10;;;;;;;;;;5034551;28;20036;-78
2021/05/31 00:36:36;;;;;;;4.28;2.10;;;;;;;;;;5034467;28;20071;-80
2021/05/31 00:39:03;;;;;;;6.15;2.30;;;;;;;;;;5034455;28;20100;-78
2021/05/31 00:41:29;;;;;;;4.65;2.13;;;;;;;;;;5034871;28;20108;-78
2021/05/31 00:43:56;;;;;;;4.43;2.22;;;;;;;;;;5034882;28;20374;-81
2021/05/31 00:46:24;;;;;;;4.78;2.35;;;;;;;;;;5034872;28;20108;-80
2021/05/31 00:48:51;;;;;;;5.93;2.25;;;;;;;;;;5033013;28;20048;-80
2021/05/31 00:51:17;;;;;;;3.85;2.00;;;;;;;;;;5034015;28;20042;-77
2021/05/31 00:53:43;;;;;;;4.30;2.10;;;;;;;;;;5032899;28;20065;-79
2021/05/31 00:56:09;;;;;;;4.63;2.20;;;;;;;;;;5034155;28;20100;-79
2021/05/31 00:58:36;;;;;;;5.63;2.38;;;;;;;;;;5032899;28;20120;-81
2021/05/31 01:01:05;;;;;;;6.50;2.25;;;;;;;;;;5034511;28;20025;-79
2021/05/31 01:03:31;;;;;;;3.92;1.92;;;;;;;;;;5032783;28;20029;-83
2021/05/31 01:06:01;;;;;;;5.32;2.15;;;;;;;;;;5034549;28;20033;-80
2021/05/31 01:08:51;;;;;;;4.05;2.42;;;;;;;;;;5032752;28;20047;-78
2021/05/31 01:11:31;;;;;;;3.85;2.13;;;;;;;;;;5032591;28;20031;-79
2021/05/31 01:14:03;;;;;;;8.00;2.25;;;;;;;;;;5033521;28;20033;-79
2021/05/31 01:16:33;;;;;;;4.35;2.42;;;;;;;;;;5033763;28;20101;-79
2021/05/31 01:19:00;;;;;;;5.22;2.30;;;;;;;;;;5034398;28;20025;-77
2021/05/31 01:21:36;;;;;;;5.15;2.55;;;;;;;;;;5032392;28;20390;-79
2021/05/31 01:24:09;;;;;;;4.28;2.22;;;;;;;;;;5033126;28;20025;-76
2021/05/31 01:26:42;;;;;;;5.27;2.63;;;;;;;;;;5032383;28;20022;-77
2021/05/31 01:29:09;;;;;;;5.45;2.55;;;;;;;;;;5033879;28;20676;-77
2021/05/31 01:31:41;;;;;;;7.22;2.30;;;;;;;;;;5034049;28;20148;-77
2021/05/31 01:34:08;;;;;;;4.20;2.40;;;;;;;;;;5032322;28;20030;-80
2021/05/31 01:36:37;;;;;;;4.72;2.78;;;;;;;;;;5032328;28;20079;-79
2021/05/31 01:39:04;;;;;;;5.45;2.30;;;;;;;;;;5033484;28;20022;-77
2021/05/31 01:41:30;;;;;;;5.10;2.60;;;;;;;;;;5032253;28;20030;-79
2021/05/31 01:43:57;;;;;;;6.80;2.20;;;;;;;;;;5032221;28;20037;-78
2021/05/31 01:46:23;;;;;;;5.07;2.47;;;;;;;;;;5033485;28;20068;-80
2021/05/31 01:48:51;;;;;;;7.97;2.50;;;;;;;;;;5032119;28;20132;-80
2021/05/31 01:51:17;;;;;;;4.90;2.42;;;;;;;;;;5032009;28;20045;-79
2021/05/31 01:53:45;;;;;;;5.20;2.53;;;;;;;;;;5034010;28;20029;-80
2021/05/31 01:56:12;;;;;;;7.03;2.45;;;;;;;;;;5032129;28;20025;-77
2021/05/31 01:58:39;;;;;;;3.58;2.10;;;;;;;;;;5032231;28;20121;-79
2021/05/31 02:01:06;;;;;;;4.15;2.08;;;;;;;;;;5033578;28;20025;-80
2021/05/31 02:03:32;;;;;;;6.60;2.30;;;;;;;;;;5034238;28;20385;-79
2021/05/31 02:05:59;;;;;;;4.97;2.50;;;;;;;;;;5034326;28;20121;-81
2021/05/31 02:08:25;;;;;;;5.88;2.30;;;;;;;;;;5034672;28;20079;-81
2021/05/31 02:10:51;;;;;;;4.22;2.50;;;;;;;;;;5033797;28;20022;-78
2021/05/31 02:13:17;;;;;;;4.18;2.30;;;;;;;;;;5033141;28;20022;-77
2021/05/31 02:15:56;;;;;;;4.60;2.47;;;;;;;;;;5031976;28;20113;-80
2021/05/31 02:18:24;;;;;;;5.22;2.35;;;;;;;;;;5031867;28;20101;-78
2021/05/31 02:20:53;;;;;;;7.43;2.20;;;;;;;;;;5033909;28;20405;-79
2021/05/31 02:23:20;;;;;;;4.35;2.30;;;;;;;;;;5031879;28;20532;-79
2021/05/31 02:25:48;;;;;;;3.70;1.92;;;;;;;;;;5034085;28;20036;-79
2021/05/31 02:28:14;;;;;;;5.97;2.60;;;;;;;;;;5035516;28;20033;-80
2021/05/31 02:30:41;;;;;;;4.40;2.25;;;;;;;;;;5035456;28;20025;-78
2021/05/31 02:33:07;;;;;;;6.18;2.80;;;;;;;;;;5035536;28;20120;-78
2021/05/31 02:35:36;;;;;;;6.32;2.63;;;;;;;;;;5037245;28;20022;-78
2021/05/31 02:38:03;;;;;;;7.65;2.90;;;;;;;;;;5035393;28;20090;-79
2021/05/31 02:40:29;;;;;;;6.07;2.65;;;;;;;;;;5036166;28;20025;-77
2021/05/31 02:42:57;;;;;;;7.40;2.55;;;;;;;;;;5035300;28;20112;-79
2021/05/31 02:45:24;;;;;;;4.85;2.33;;;;;;;;;;5035298;28;20021;-78
2021/05/31 02:47:51;;;;;;;13.65;2.50;;;;;;;;;;5036379;28;20037;-78
2021/05/31 02:50:17;;;;;;;4.93;2.50;;;;;;;;;;5034884;28;20452;-77
2021/05/31 02:52:43;;;;;;;5.50;2.63;;;;;;;;;;5035195;28;20021;-79
2021/05/31 02:55:14;;;;;;;6.10;2.28;;;;;;;;;;5035105;28;20033;-79
2021/05/31 02:57:41;;;;;;;5.03;2.50;;;;;;;;;;5037399;28;20378;-78
2021/05/31 03:00:10;;;;;;;8.00;2.75;;;;;;;;;;5036169;28;20108;-80
2021/05/31 03:02:36;;;;;;;4.57;2.20;;;;;;;;;;5034999;28;20025;-78
2021/05/31 03:05:03;;;;;;;5.15;2.72;;;;;;;;;;5036224;28;20025;-76
2021/05/31 03:07:29;;;;;;;4.90;2.30;;;;;;;;;;5034804;28;20112;-78
2021/05/31 03:09:55;;;;;;;5.28;2.65;;;;;;;;;;5036670;28;20030;-78
2021/05/31 03:12:22;;;;;;;3.47;2.10;;;;;;;;;;5034798;28;20017;-79
2021/05/31 03:14:51;;;;;;;4.90;2.40;;;;;;;;;;5036189;28;20049;-79
2021/05/31 03:17:18;;;;;;;5.35;2.50;;;;;;;;;;5035957;28;20379;-79
2021/05/31 03:19:44;;;;;;;5.28;2.58;;;;;;;;;;5034606;28;20037;-78
2021/05/31 03:22:10;;;;;;;5.00;2.85;;;;;;;;;;5034697;28;20021;-79
2021/05/31 03:24:36;;;;;;;5.68;2.25;;;;;;;;;;5034588;28;20040;-78
2021/05/31 03:27:03;;;;;;;7.47;3.00;;;;;;;;;;5034632;28;20386;-82
2021/05/31 03:29:30;;;;;;;6.82;2.65;;;;;;;;;;5034406;28;20041;-78
2021/05/31 03:31:56;;;;;;;5.20;2.55;;;;;;;;;;5034386;28;20052;-78
2021/05/31 03:34:22;;;;;;;6.65;2.45;;;;;;;;;;5034339;28;20025;-78
2021/05/31 03:36:48;;;;;;;5.20;2.55;;;;;;;;;;5033945;28;20532;-77
2021/05/31 03:39:14;;;;;;;5.90;2.50;;;;;;;;;;5035583;28;20474;-78
2021/05/31 03:41:41;;;;;;;6.20;2.67;;;;;;;;;;5034253;28;20459;-79
2021/05/31 03:44:07;;;;;;;4.68;2.15;;;;;;;;;;5035522;28;20359;-81
2021/05/31 03:46:34;;;;;;;4.25;2.35;;;;;;;;;;5034109;28;20048;-81
2021/05/31 03:49:00;;;;;;;10.63;2.92;;;;;;;;;;5035244;28;20038;-78
2021/05/31 03:51:26;;;;;;;4.60;1.92;;;;;;;;;;5035157;28;20045;-78
2021/05/31 03:53:53;;;;;;;4.13;2.25;;;;;;;;;;5034070;28;20041;-79
2021/05/31 03:56:19;;;;;;;4.95;2.08;;;;;;;;;;5035166;28;20063;-78
2021/05/31 03:58:47;;;;;;;6.40;2.20;;;;;;;;;;5035421;28;20104;-79
2021/05/31 04:01:14;;;;;;;5.63;2.17;;;;;;;;;;5033979;28;20033;-79
2021/05/31 04:03:41;;;;;;;4.50;2.15;;;;;;;;;;5033930;28;20477;-78
2021/05/31 04:11:37;;;;;;;7.63;2.05;;;;;;;;;;5034972;28;20040;-80
2021/05/31 04:14:11;;;;;;;3.65;1.65;;;;;;;;;;5035522;28;20029;-78
2021/05/31 04:16:38;;;;;;;3.42;1.58;;;;;;;;;;5033715;28;20463;-82
2021/05/31 04:19:05;;;;;;;3.55;1.38;;;;;;;;;;5035458;28;20029;-80
2021/05/31 04:21:32;;;;;;;2.47;1.38;;;;;;;;;;5034842;28;20030;-82
2021/05/31 04:23:59;;;;;;;2.92;1.40;;;;;;;;;;5034779;28;20041;-81
2021/05/31 04:26:26;;;;;;;3.35;1.60;;;;;;;;;;5033480;28;20026;-79
2021/05/31 04:28:52;;;;;;;2.67;1.40;;;;;;;;;;5033275;28;20464;-79
2021/05/31 04:31:19;;;;;;;3.35;1.60;;;;;;;;;;5033874;28;20026;-80
2021/05/31 04:33:46;;;;;;;2.63;1.50;;;;;;;;;;5033243;28;20052;-81
2021/05/31 04:36:12;;;;;;;3.47;1.80;;;;;;;;;;5033167;28;20028;-77
2021/05/31 04:38:39;;;;;;;3.35;1.52;;;;;;;;;;5033124;28;20025;-77
2021/05/31 04:41:05;;;;;;;3.55;1.50;;;;;;;;;;5033100;28;20474;-79
2021/05/31 04:43:32;;;;;;;3.22;1.65;;;;;;;;;;5033065;28;20116;-77
2021/05/31 04:45:58;;;;;;;3.60;1.60;;;;;;;;;;5034051;28;20367;-79
2021/05/31 04:48:24;;;;;;;2.55;1.50;;;;;;;;;;5032299;28;20033;-77
2021/05/31 04:50:56;;;;;;;3.58;1.42;;;;;;;;;;5032647;28;20518;-79
2021/05/31 04:53:26;;;;;;;3.05;1.35;;;;;;;;;;5034723;28;20084;-76
2021/05/31 04:55:56;;;;;;;3.05;1.52;;;;;;;;;;5032854;28;20490;-79
2021/05/31 04:58:23;;;;;;;4.15;1.33;;;;;;;;;;5032816;28;20394;-79
2021/05/31 05:00:50;;;;;;;2.83;1.45;;;;;;;;;;5032663;28;20478;-77
2021/05/31 05:03:18;;;;;;;3.05;1.33;;;;;;;;;;5034425;28;20018;-79
2021/05/31 05:05:44;;;;;;;2.80;1.50;;;;;;;;;;5034441;28;20056;-80
2021/05/31 05:08:10;;;;;;;3.30;1.50;;;;;;;;;;5032528;28;20029;-86
2021/05/31 05:10:36;;;;;;;2.50;1.35;;;;;;;;;;5045112;28;20029;-87
2021/05/31 05:13:02;;;;;;;3.63;1.35;;;;;;;;;;5052123;28;20048;-86
2021/05/31 05:15:29;;;;;;;3.53;1.70;;;;;;;;;;5053611;28;20564;-79
2021/05/31 05:17:58;;;;;;;3.25;1.30;;;;;;;;;;5053117;28;20064;-79
2021/05/31 05:20:26;;;;;;;3.13;1.60;;;;;;;;;;5053009;28;20025;-79
2021/05/31 05:22:52;;;;;;;4.05;1.40;;;;;;;;;;5052771;28;20025;-86
2021/05/31 05:25:19;;;;;;;5.70;1.60;;;;;;;;;;5053946;28;20052;-79
2021/05/31 05:27:46;;;;;;;4.15;1.55;;;;;;;;;;5052725;28;20052;-82
2021/05/31 05:30:14;;;;;;;4.38;1.35;;;;;;;;;;5052662;28;20029;-79
2021/05/31 05:32:41;;;;;;;4.45;1.50;;;;;;;;;;5052313;28;20029;-80
2021/05/31 05:35:24;;;;;;;4.35;1.50;;;;;;;;;;5053485;28;20485;-82
2021/05/31 05:38:03;;;;;;;2.75;1.40;;;;;;;;;;5052353;28;20376;-79
2021/05/31 05:46:04;;;;;;;3.90;1.50;;;;;;;;;;5053692;28;20017;-85
2021/05/31 05:48:28;;;;;;;3.97;1.42;;;;;;;;;;5053031;28;20409;-81
2021/05/31 05:51:04;;;;;;;5.28;1.50;;;;;;;;;;5052220;28;20056;-82
2021/05/31 05:53:36;;;;;;;2.30;1.30;;;;;;;;;;5053966;28;20440;-85
2021/05/31 05:56:03;;;;;;;4.35;1.40;;;;;;;;;;5052457;28;20390;-81
2021/05/31 05:58:29;;;;;;;2.50;1.17;;;;;;;;;;5052432;28;20029;-80
2021/05/31 06:00:56;;;;;;;2.55;1.25;;;;;;;;;;5055663;28;20024;-82
2021/05/31 06:03:23;;;;;;;2.10;1.35;;;;;;;;;;5056489;28;20064;-84
2021/05/31 06:05:49;;;;;;;2.50;1.35;;;;;;;;;;5056227;28;20150;-83
2021/05/31 06:08:15;;;;;;;1.48;1.00;;;;;;;;;;5055998;28;20028;-77
2021/05/31 06:10:41;;;;;;;2.25;1.38;;;;;;;;;;5056563;28;20170;-78
2021/05/31 06:13:08;;;;;;;2.70;1.40;;;;;;;;;;5055776;28;20508;-79
2021/05/31 06:15:34;;;;;;;2.38;1.30;;;;;;;;;;5055854;28;20062;-81
2021/05/31 06:18:00;;;;;;;4.10;1.40;;;;;;;;;;5056211;28;20021;-80
2021/05/31 06:20:26;;;;;;;1.90;1.30;;;;;;;;;;5055646;28;20032;-79
2021/05/31 06:22:53;;;;;;;3.30;1.33;;;;;;;;;;5056986;28;20481;-78
2021/05/31 06:25:20;;;;;;;5.65;1.60;;;;;;;;;;5055566;28;20581;-78
2021/05/31 06:27:47;;;;;;;2.22;1.38;;;;;;;;;;5056690;28;20099;-78
2021/05/31 06:30:13;;;;;;;2.60;1.40;;;;;;;;;;5056292;28;20063;-79
2021/05/31 06:32:39;;;;;;;2.97;1.65;;;;;;;;;;5055924;28;20416;-77
2021/05/31 06:35:06;;;;;;;4.00;1.90;;;;;;;;;;5056575;28;20408;-81
2021/05/31 06:37:38;;;;;;;2.63;1.30;;;;;;;;;;5056504;28;20029;-80
2021/05/31 06:40:05;;;;;;;2.55;1.50;;;;;;;;;;5056577;28;20021;-77
2021/05/31 06:42:33;;;;;;;3.83;1.52;;;;;;;;;;5056538;28;20056;-82
2021/05/31 06:44:59;;;;;;;2.13;1.33;;;;;;;;;;5054971;28;20079;-78
2021/05/31 06:47:25;;;;;;;3.15;1.40;;;;;;;;;;5054968;28;20482;-78
2021/05/31 06:49:53;;;;;;;4.10;1.30;;;;;;;;;;5056487;28;20035;-77
2021/05/31 06:52:19;;;;;;;2.13;1.17;;;;;;;;;;5054856;28;20121;-78
2021/05/31 06:54:45;;;;;;;2.50;1.23;;;;;;;;;;5054943;28;20025;-78
2021/05/31 06:57:12;;;;;;;3.55;1.40;;;;;;;;;;5054783;28;20033;-78
2021/05/31 06:59:38;;;;;;;2.47;1.30;;;;;;;;;;5056555;28;20389;-78
2021/05/31 07:02:04;;;;;;;3.15;1.13;;;;;;;;;;5054846;28;20402;-77
2021/05/31 07:04:30;;;;;;;2.45;1.35;;;;;;;;;;5055236;28;20144;-78
2021/05/31 07:06:56;;;;;;;3.13;1.50;;;;;;;;;;5054590;28;20189;-79
2021/05/31 07:09:22;;;;;;;2.40;1.35;;;;;;;;;;5054472;28;20129;-78
2021/05/31 07:11:48;;;;;;;2.80;1.15;;;;;;;;;;5055040;28;20107;-77
2021/05/31 07:14:22;;;;;;;3.97;1.60;;;;;;;;;;5054722;28;20029;-78
2021/05/31 07:16:51;;;;;;;2.30;1.00;;;;;;;;;;5054712;28;20036;-79
2021/05/31 07:19:17;;;;;;;6.78;1.38;;;;;;;;;;5054496;28;20025;-79
2021/05/31 07:21:43;;;;;;;3.28;1.27;;;;;;;;;;5054501;28;20029;-79
2021/05/31 07:24:10;;;;;;;2.63;1.20;;;;;;;;;;5054508;28;20029;-78
2021/05/31 07:26:36;;;;;;;3.67;1.45;;;;;;;;;;5055732;28;20032;-77
2021/05/31 07:29:04;;;;;;;2.25;1.27;;;;;;;;;;5054330;28;20033;-79
2021/05/31 07:31:30;;;;;;;8.20;1.45;;;;;;;;;;5054651;28;20558;-78
2021/05/31 07:33:56;;;;;;;2.30;1.33;;;;;;;;;;5054216;28;20500;-78
2021/05/31 07:36:23;;;;;;;9.98;1.33;;;;;;;;;;5055622;28;20029;-78
2021/05/31 07:38:50;;;;;;;2.10;1.20;;;;;;;;;;5055345;28;20552;-77
2021/05/31 07:41:17;;;;;;;2.35;1.17;;;;;;;;;;5054077;28;20025;-79
2021/05/31 07:43:43;;;;;;;3.67;1.40;;;;;;;;;;5053961;28;20036;-82
2021/05/31 07:46:11;;;;;;;3.70;1.10;;;;;;;;;;5054012;28;20036;-78
2021/05/31 07:48:39;;;;;;;4.20;1.40;;;;;;;;;;5054051;28;20036;-78
2021/05/31 07:51:19;;;;;;;2.58;1.23;;;;;;;;;;5053848;28;20136;-79
2021/05/31 07:53:47;;;;;;;2.35;1.27;;;;;;;;;;5053907;28;20029;-79
2021/05/31 07:56:13;;;;;;;4.07;1.55;;;;;;;;;;5053849;28;20021;-82
2021/05/31 07:58:43;;;;;;;4.10;1.17;;;;;;;;;;5053850;28;20029;-78
2021/05/31 08:01:10;;;;;;;3.35;1.60;;;;;;;;;;5053711;28;20389;-80
2021/05/31 08:03:37;;;;;;;5.03;1.33;;;;;;;;;;5054738;28;20362;-81
2021/05/31 08:06:03;;;;;;;4.60;1.55;;;;;;;;;;5050456;28;20489;-80
2021/05/31 08:08:29;;;;;;;3.20;1.40;;;;;;;;;;5033778;28;20092;-79
2021/05/31 08:10:55;;;;;;;2.35;1.35;;;;;;;;;;5033815;28;20021;-88
2021/05/31 08:13:22;;;;;;;3.50;1.60;;;;;;;;;;5033800;28;20029;-79
2021/05/31 08:15:48;;;;;;;2.80;1.40;;;;;;;;;;5033687;28;20071;-86
2021/05/31 08:18:14;;;;;;;3.33;1.35;;;;;;;;;;5034879;28;20029;-85
2021/05/31 08:20:40;;;;;;;6.88;1.58;;;;;;;;;;5033715;28;20545;-81
2021/05/31 08:23:07;;;;;;;4.60;1.27;;;;;;;;;;5033651;28;20079;-78
2021/05/31 08:25:33;;;;;;;2.38;1.38;;;;;;;;;;5035248;28;20104;-78
2021/05/31 08:28:01;;;;;;;2.10;1.27;;;;;;;;;;5033900;28;20064;-78
2021/05/31 08:30:27;;;;;;;5.88;1.70;;;;;;;;;;5033725;28;20022;-78
2021/05/31 08:32:54;;;;;;;2.83;1.63;;;;;;;;;;5034551;28;20036;-79
2021/05/31 08:35:20;;;;;;;3.10;1.42;;;;;;;;;;5033350;28;20386;-79
2021/05/31 08:37:46;;;;;;;3.38;1.60;;;;;;;;;;5033327;28;20044;-80
2021/05/31 08:40:12;;;;;;;3.53;1.48;;;;;;;;;;5033380;28;20022;-78
2021/05/31 08:42:39;;;;;;;3.45;1.70;;;;;;;;;;5033260;28;20036;-78
2021/05/31 08:45:06;;;;;;;4.40;1.70;;;;;;;;;;5032874;28;20478;-81
2021/05/31 08:47:33;;;;;;;3.95;1.63;;;;;;;;;;5034174;28;20032;-79
2021/05/31 08:49:59;;;;;;;8.45;1.80;;;;;;;;;;5032675;28;20040;-79
2021/05/31 08:52:25;;;;;;;3.80;1.70;;;;;;;;;;5032960;28;20025;-80
2021/05/31 08:54:51;;;;;;;3.65;1.60;;;;;;;;;;5033197;28;20025;-79
2021/05/31 08:57:17;;;;;;;6.70;1.90;;;;;;;;;;5033167;28;20032;-79
2021/05/31 08:59:43;;;;;;;2.95;1.38;;;;;;;;;;5034086;28;20543;-79
2021/05/31 09:02:10;;;;;;;4.47;1.60;;;;;;;;;;5034287;28;20033;-78
2021/05/31 09:04:44;;;;;;;2.20;1.45;;;;;;;;;;5032662;28;20022;-79
2021/05/31 09:07:11;;;;;;;4.10;1.40;;;;;;;;;;5045059;28;20393;-81
2021/05/31 09:09:41;;;;;;;2.63;1.33;;;;;;;;;;5052651;28;20414;-79
2021/05/31 09:12:08;;;;;;;3.50;1.45;;;;;;;;;;5052597;28;20025;-81
2021/05/31 09:14:34;;;;;;;4.25;1.33;;;;;;;;;;5052476;28;20456;-79
2021/05/31 09:17:00;;;;;;;1.98;1.38;;;;;;;;;;5052639;28;20353;-79
2021/05/31 09:19:27;;;;;;;4.40;1.40;;;;;;;;;;5052271;28;20028;-81
2021/05/31 09:21:53;;;;;;;4.85;1.70;;;;;;;;;;5052649;28;20107;-79
2021/05/31 09:24:23;;;;;;;3.58;1.60;;;;;;;;;;5052588;28;20037;-88
2021/05/31 09:26:54;;;;;;;2.58;1.48;;;;;;;;;;5053104;28;20025;-77
2021/05/31 09:29:21;;;;;;;4.88;1.50;;;;;;;;;;5053729;28;20037;-80
2021/05/31 09:32:09;;;;;;;2.42;1.42;;;;;;;;;;5052358;28;20489;-79
2021/05/31 09:34:35;;;;;;;3.28;1.58;;;;;;;;;;5051776;28;20055;-81
2021/05/31 09:37:03;;;;;;;2.78;1.33;;;;;;;;;;5052657;28;20024;-81
2021/05/31 09:39:32;;;;;;;2.83;1.50;;;;;;;;;;5052246;28;20028;-79
2021/05/31 09:42:12;;;;;;;2.85;1.40;;;;;;;;;;5052491;28;20099;-80
2021/05/31 09:44:39;;;;;;;4.03;1.42;;;;;;;;;;5053635;28;20355;-78
2021/05/31 09:47:05;;;;;;;5.38;1.63;;;;;;;;;;5052369;28;20465;-81
2021/05/31 09:49:31;;;;;;;2.25;1.40;;;;;;;;;;5052147;28;20037;-79
2021/05/31 09:52:01;;;;;;;2.72;1.40;;;;;;;;;;5051820;28;20045;-79
2021/05/31 09:54:31;;;;;;;3.00;1.40;;;;;;;;;;5053439;28;20028;-80
2021/05/31 09:56:58;;;;;;;13.70;1.80;;;;;;;;;;5052316;28;20384;-85
2021/05/31 09:59:29;;;;;;;4.57;1.40;;;;;;;;;;5052237;28;20053;-79
2021/05/31 10:01:59;;;;;;;5.32;1.58;;;;;;;;;;5051669;28;20389;-78
2021/05/31 10:09:40;;;;;;;6.30;1.30;;;;;;;;;;5033373;28;20037;-81
2021/05/31 10:12:06;;;;;;;5.15;1.38;;;;;;;;;;5031989;28;20025;-79
2021/05/31 10:14:33;;;;;;;6.78;1.48;;;;;;;;;;5032027;28;20427;-79
2021/05/31 10:17:00;;;;;;;2.42;1.27;;;;;;;;;;5031809;28;20060;-78
2021/05/31 10:19:27;;;;;;;4.28;1.50;;;;;;;;;;5032273;28;20033;-81
2021/05/31 10:21:53;;;;;;;3.03;1.50;;;;;;;;;;5032313;28;20026;-83
2021/05/31 10:24:19;;;;;;;3.88;1.20;;;;;;;;;;5032391;28;20124;-79
2021/05/31 10:26:46;;;;;;;5.78;1.88;;;;;;;;;;5033443;28;20029;-78
2021/05/31 10:29:12;;;;;;;3.40;1.70;;;;;;;;;;5031712;28;20044;-79
2021/05/31 10:31:43;;;;;;;12.25;2.10;;;;;;;;;;5032122;28;20029;-80
2021/05/31 10:34:17;;;;;;;9.00;1.77;;;;;;;;;;5032219;28;20029;-79
2021/05/31 10:36:45;;;;;;;4.50;1.77;;;;;;;;;;5031976;28;20493;-78
2021/05/31 10:39:20;;;;;;;5.18;1.70;;;;;;;;;;5031594;28;20184;-80
2021/05/31 10:41:48;;;;;;;3.33;1.65;;;;;;;;;;5032687;28;20152;-78
2021/05/31 10:44:19;;;;;;;3.78;1.70;;;;;;;;;;5032118;28;20049;-79
2021/05/31 10:46:46;;;;;;;3.08;1.73;;;;;;;;;;5032589;28;20114;-80
2021/05/31 10:49:21;;;;;;;2.83;1.45;;;;;;;;;;5035538;28;20040;-82
2021/05/31 10:51:47;;;;;;;5.43;1.67;;;;;;;;;;5035627;28;20128;-79
2021/05/31 10:54:16;;;;;;;6.50;2.17;;;;;;;;;;5036059;28;20029;-83
2021/05/31 10:56:43;;;;;;;5.50;1.70;;;;;;;;;;5035731;28;20029;-81
2021/05/31 10:59:09;;;;;;;4.05;1.80;;;;;;;;;;5035147;28;20034;-81
2021/05/31 11:01:39;;;;;;;3.85;1.73;;;;;;;;;;5036138;28;20038;-81
2021/05/31 11:04:10;;;;;;;4.57;1.80;;;;;;;;;;5040399;28;20025;-79
2021/05/31 11:06:39;;;;;;;3.95;1.90;;;;;;;;;;5045604;28;20415;-78
2021/05/31 11:09:07;;;;;;;2.63;1.42;;;;;;;;;;5034800;28;20463;-82
2021/05/31 11:11:42;;;;;;;3.47;1.77;;;;;;;;;;5037501;28;20017;-79
2021/05/31 11:14:09;;;;;;;2.85;1.67;;;;;;;;;;5035246;28;20456;-81
2021/05/31 11:16:56;;;;;;;3.28;1.77;;;;;;;;;;5035019;28;20109;-78
2021/05/31 11:19:34;;;;;;;3.97;1.95;;;;;;;;;;5036351;28;20037;-79
2021/05/31 11:22:11;;;;;;;3.20;1.50;;;;;;;;;;5040456;28;20056;-78
2021/05/31 11:24:37;;;;;;;3.22;1.63;;;;;;;;;;5035789;28;20108;-79
2021/05/31 11:27:04;;;;;;;5.15;1.50;;;;;;;;;;5034569;28;20037;-83
2021/05/31 11:29:30;;;;;;;3.40;1.77;;;;;;;;;;5034887;28;20051;-78
2021/05/31 11:31:56;;;;;;;2.58;1.48;;;;;;;;;;5034409;28;20029;-80
2021/05/31 11:34:24;;;;;;;3.65;2.00;;;;;;;;;;5034591;28;20037;-76
2021/05/31 11:36:50;;;;;;;7.20;2.08;;;;;;;;;;5034386;28;20098;-78
2021/05/31 11:39:18;;;;;;;5.57;1.60;;;;;;;;;;5034687;28;20028;-80
2021/05/31 11:41:45;;;;;;;3.92;2.08;;;;;;;;;;5034308;28;20030;-78
2021/05/31 11:44:22;;;;;;;3.15;1.90;;;;;;;;;;5034093;28;20023;-77
2021/05/31 11:46:50;;;;;;;4.55;1.90;;;;;;;;;;5034159;28;20478;-86
2021/05/31 11:49:17;;;;;;;2.40;1.58;;;;;;;;;;5034088;28;20487;-85
2021/05/31 11:51:54;;;;;;;2.65;1.40;;;;;;;;;;5033960;28;20194;-76
2021/05/31 11:54:23;;;;;;;3.13;1.70;;;;;;;;;;5034014;28;20065;-76
2021/05/31 11:56:50;;;;;;;10.40;2.03;;;;;;;;;;5035265;28;20073;-77
2021/05/31 11:59:16;;;;;;;3.60;1.60;;;;;;;;;;5034024;28;20017;-83
2021/05/31 12:01:49;;;;;;;3.88;1.65;;;;;;;;;;5034943;28;20109;-82
2021/05/31 12:04:16;;;;;;;4.68;1.95;;;;;;;;;;5035732;28;20021;-75
2021/05/31 12:06:43;;;;;;;2.42;1.40;;;;;;;;;;5042287;28;20446;-75
2021/05/31 12:09:19;;;;;;;3.67;1.35;;;;;;;;;;5053691;28;20106;-77
2021/05/31 12:11:45;;;;;;;3.08;1.73;;;;;;;;;;5054191;28;20108;-76
2021/05/31 12:14:11;;;;;;;9.55;1.60;;;;;;;;;;5054170;28;20055;-84
2021/05/31 12:16:37;;;;;;;4.72;1.45;;;;;;;;;;5055176;28;20124;-88
2021/05/31 12:19:24;;;;;;;5.10;1.85;;;;;;;;;;5053837;28;20025;-77
2021/05/31 12:21:50;;;;;;;2.13;1.38;;;;;;;;;;5053557;28;20036;-89
2021/05/31 12:24:23;;;;;;;3.83;1.40;;;;;;;;;;5053943;28;20021;-84
2021/05/31 12:26:49;;;;;;;5.18;1.58;;;;;;;;;;5053414;28;20063;-81
2021/05/31 12:29:15;;;;;;;2.50;1.40;;;;;;;;;;5054975;28;20478;-82
2021/05/31 12:31:41;;;;;;;2.40;1.38;;;;;;;;;;5055034;28;20017;-80
2021/05/31 12:34:09;;;;;;;4.20;1.63;;;;;;;;;;5053432;28;20033;-79
2021/05/31 12:36:35;;;;;;;3.25;1.38;;;;;;;;;;5054985;28;20028;-78
2021/05/31 12:39:03;;;;;;;6.32;1.65;;;;;;;;;;5053425;28;20040;-79
2021/05/31 12:41:29;;;;;;;5.10;1.52;;;;;;;;;;5054843;28;20489;-79
2021/05/31 12:44:03;;;;;;;3.88;1.70;;;;;;;;;;5054613;28;20029;-83
2021/05/31 12:46:30;;;;;;;4.55;1.60;;;;;;;;;;5055240;28;20033;-77
2021/05/31 12:48:56;;;;;;;3.47;1.67;;;;;;;;;;5053360;28;20120;-78
2021/05/31 12:51:22;;;;;;;2.70;1.40;;;;;;;;;;5053189;28;20547;-79
2021/05/31 12:53:49;;;;;;;3.08;1.50;;;;;;;;;;5053502;28;20036;-80
2021/05/31 12:56:15;;;;;;;3.92;1.60;;;;;;;;;;5054833;28;20470;-88
2021/05/31 12:58:41;;;;;;;3.05;1.30;;;;;;;;;;5053423;28;20032;-81
2021/05/31 13:01:09;;;;;;;4.00;1.33;;;;;;;;;;5054499;28;20028;-77
2021/05/31 13:03:36;;;;;;;2.75;1.23;;;;;;;;;;5053063;28;20025;-77
2021/05/31 13:06:05;;;;;;;2.10;1.20;;;;;;;;;;5052818;28;20032;-80
2021/05/31 13:08:38;;;;;;;5.22;1.40;;;;;;;;;;5054306;28;20072;-84
2021/05/31 13:11:04;;;;;;;;;;;;;;;;;;5056941;28;20017;-76
2021/05/31 13:13:35;;;;;;;1.92;1.17;;;;;;;;;;5039254;28;19912;-77
2021/05/31 13:16:04;;;;;;;6.97;1.73;;;;;;;;;;5033310;28;20022;-79
2021/05/31 13:18:32;;;;;;;5.57;1.23;;;;;;;;;;5032492;28;20060;-79
2021/05/31 13:21:12;;;;;;;7.40;1.58;;;;;;;;;;5032794;28;20037;-79
2021/05/31 13:23:40;;;;;;;11.55;1.40;;;;;;;;;;5032508;28;20033;-80
2021/05/31 13:26:19;;;;;;;11.05;1.35;;;;;;;;;;5034056;28;20052;-79
2021/05/31 13:28:48;;;;;;;2.40;0.95;;;;;;;;;;5032317;28;20040;-79
2021/05/31 13:31:16;;;;;;;2.42;1.13;;;;;;;;;;5032400;28;20103;-79
2021/05/31 13:33:46;;;;;;;3.22;1.30;;;;;;;;;;5034274;28;20109;-79
2021/05/31 13:36:16;;;;;;;4.47;1.30;;;;;;;;;;5033700;28;20024;-78
2021/05/31 13:38:42;;;;;;;24.30;1.50;;;;;;;;;;5033616;28;20457;-78
2021/05/31 13:41:08;;;;;;;3.80;1.15;;;;;;;;;;5033468;28;20022;-79
2021/05/31 13:43:35;;;;;;;20.10;1.42;;;;;;;;;;5032183;28;20025;-79
2021/05/31 13:46:02;;;;;;;2.17;0.90;;;;;;;;;;5032192;28;20026;-80
2021/05/31 13:48:28;;;;;;;12.90;1.58;;;;;;;;;;5033395;28;20120;-80
2021/05/31 13:50:58;;;;;;;4.28;0.82;;;;;;;;;;5031879;28;20045;-79
2021/05/31 13:53:25;;;;;;;4.00;1.13;;;;;;;;;;5032098;28;20026;-83
2021/05/31 13:55:51;;;;;;;47.10;8.70;;;;;;;;;;5032114;28;20022;-81
2021/05/31 13:58:17;;;;;;;5.88;1.55;;;;;;;;;;5032114;28;20026;-85
2021/05/31 14:00:45;;;;;;;3.72;1.08;;;;;;;;;;5031980;28;20079;-81
2021/05/31 14:03:11;;;;;;;4.57;1.40;;;;;;;;;;5032047;28;20060;-81
2021/05/31 14:05:38;;;;;;;2.90;1.38;;;;;;;;;;5031814;28;20065;-79
2021/05/31 14:08:05;;;;;;;2.75;1.00;;;;;;;;;;5031834;28;20037;-81
2021/05/31 14:10:33;;;;;;;3.58;1.38;;;;;;;;;;5031930;28;20021;-81
2021/05/31 14:13:00;;;;;;;3.63;1.15;;;;;;;;;;5031931;28;20390;-81
2021/05/31 14:15:26;;;;;;;9.82;1.60;;;;;;;;;;5031847;28;20025;-80
2021/05/31 14:17:53;;;;;;;5.90;1.38;;;;;;;;;;5033221;28;20033;-82
2021/05/31 14:20:20;;;;;;;8.45;1.42;;;;;;;;;;5032218;28;20026;-81
2021/05/31 14:22:47;;;;;;;2.72;1.20;;;;;;;;;;5035819;28;20032;-81
2021/05/31 14:25:14;;;;;;;6.00;1.50;;;;;;;;;;5036797;28;20038;-79
2021/05/31 14:27:41;;;;;;;22.40;2.75;;;;;;;;;;5035762;28;20032;-79
2021/05/31 14:30:09;;;;;;;3.20;1.10;;;;;;;;;;5036877;28;20087;-79
2021/05/31 14:32:36;;;;;;;3.20;1.27;;;;;;;;;;5035728;28;20048;-82
2021/05/31 14:35:03;;;;;;;2.58;1.30;;;;;;;;;;5037444;28;20021;-78
2021/05/31 14:37:30;;;;;;;1.90;0.93;;;;;;;;;;5036895;28;20057;-81
2021/05/31 14:39:56;;;;;;;5.03;1.27;;;;;;;;;;5037282;28;20022;-79
2021/05/31 14:42:22;;;;;;;4.07;1.05;;;;;;;;;;5037713;28;20107;-80
2021/05/31 14:44:49;;;;;;;2.00;1.23;;;;;;;;;;5035560;28;20091;-81
2021/05/31 14:47:16;;;;;;;2.45;1.20;;;;;;;;;;5037238;28;20036;-80
2021/05/31 14:49:43;;;;;;;4.70;1.52;;;;;;;;;;5036594;28;20076;-82
2021/05/31 14:52:09;;;;;;;2.38;1.20;;;;;;;;;;5036484;28;20050;-78
2021/05/31 14:54:36;;;;;;;2.58;1.20;;;;;;;;;;5036877;28;20021;-77
2021/05/31 14:57:02;;;;;;;2.72;0.93;;;;;;;;;;5035262;28;20458;-77
2021/05/31 14:59:29;;;;;;;4.70;1.30;;;;;;;;;;5035343;28;20025;-77
2021/05/31 15:01:55;;;;;;;5.40;1.23;;;;;;;;;;5036657;28;20032;-78
2021/05/31 15:04:21;;;;;;;3.40;1.20;;;;;;;;;;5037725;28;20514;-78